createdAt,value
2022-09-24T00:01:54.328Z,7.49
2022-09-24T00:04:27.673Z,7.48
2022-09-24T00:06:55.623Z,7.45
2022-09-24T00:09:25.888Z,7.44
2022-09-24T00:11:57.559Z,7.44
2022-09-24T00:14:25.314Z,7.42
2022-09-24T00:16:53.249Z,7.44
2022-09-24T00:19:20.978Z,7.46
2022-09-24T00:21:48.952Z,7.48
2022-09-24T00:24:39.225Z,7.48
2022-09-24T00:27:09.734Z,7.47
2022-09-24T00:29:40.153Z,7.45
2022-09-24T00:32:13.549Z,7.46
2022-09-24T00:34:41.613Z,7.49
2022-09-24T00:37:09.292Z,7.51
2022-09-24T00:39:42.328Z,7.49
2022-09-24T00:42:13.478Z,7.45
2022-09-24T00:44:41.403Z,7.41
2022-09-24T00:47:36.827Z,7.41
2022-09-24T00:50:27.954Z,7.41
2022-09-24T00:53:14.994Z,7.42
2022-09-24T00:55:52.953Z,7.43
2022-09-24T00:58:26.599Z,7.39
2022-09-24T01:01:01.961Z,7.36
2022-09-24T01:03:42.463Z,7.28
2022-09-24T01:06:17.520Z,7.19
2022-09-24T01:08:49.279Z,7.17
2022-09-24T01:11:33.648Z,7.18
2022-09-24T01:14:32.900Z,7.20
2022-09-24T01:17:19.063Z,7.23
2022-09-24T01:20:34.294Z,7.20
2022-09-24T01:23:43.766Z,7.14
2022-09-24T01:27:00.046Z,7.11
2022-09-24T01:29:56.073Z,7.13
2022-09-24T01:32:49.695Z,7.15
2022-09-24T01:35:39.358Z,7.18
2022-09-24T01:38:12.371Z,7.20
2022-09-24T01:40:47.937Z,7.18
2022-09-24T01:43:24.412Z,7.15
2022-09-24T01:46:03.249Z,7.12
2022-09-24T01:48:39.050Z,7.09
2022-09-24T01:51:24.167Z,7.07
2022-09-24T01:54:13.845Z,7.08
2022-09-24T01:56:56.151Z,7.09
2022-09-24T02:00:00.570Z,7.10
2022-09-24T02:02:52.362Z,7.11
2022-09-24T02:05:59.755Z,7.11
2022-09-24T02:08:42.073Z,7.10
2022-09-24T02:11:17.028Z,7.09
2022-09-24T02:14:05.824Z,7.08
2022-09-24T02:16:46.687Z,7.07
2022-09-24T02:19:27.834Z,7.04
2022-09-24T02:21:55.812Z,7.02
2022-09-24T02:24:47.835Z,7.00
2022-09-24T02:27:21.281Z,7.00
2022-09-24T02:29:49.125Z,6.99
2022-09-24T02:32:23.361Z,7.00
2022-09-24T02:35:02.009Z,7.01
2022-09-24T02:37:38.910Z,7.02
2022-09-24T02:40:15.725Z,7.04
2022-09-24T02:42:46.259Z,7.06
2022-09-24T02:45:17.253Z,7.06
2022-09-24T02:47:45.156Z,7.07
2022-09-24T02:50:14.188Z,7.08
2022-09-24T02:52:42.920Z,7.10
2022-09-24T02:55:10.814Z,7.11
2022-09-24T02:57:39.808Z,7.05
2022-09-24T03:00:12.788Z,6.95
2022-09-24T03:02:40.552Z,6.93
2022-09-24T03:05:13.618Z,6.88
2022-09-24T03:07:44.128Z,6.78
2022-09-24T03:10:11.931Z,6.71
2022-09-24T03:12:45.590Z,6.66
2022-09-24T03:15:14.767Z,6.60
2022-09-24T03:17:42.464Z,6.52
2022-09-24T03:20:12.925Z,6.45
2022-09-24T03:22:40.941Z,6.43
2022-09-24T03:25:12.433Z,6.40
2022-09-24T03:27:40.181Z,6.34
2022-09-24T03:30:32.486Z,6.29
2022-09-24T03:33:05.486Z,6.24
2022-09-24T03:35:34.634Z,6.29
2022-09-24T03:38:02.370Z,6.31
2022-09-24T03:40:32.758Z,6.30
2022-09-24T03:43:02.865Z,6.27
2022-09-24T03:45:33.099Z,6.24
2022-09-24T03:48:02.574Z,6.21
2022-09-24T03:50:30.273Z,6.13
2022-09-24T03:52:59.272Z,6.10
2022-09-24T03:55:27.266Z,6.09
2022-09-24T03:57:56.552Z,6.11
2022-09-24T04:00:24.334Z,6.14
2022-09-24T04:02:52.258Z,6.11
2022-09-24T04:05:22.241Z,6.00
2022-09-24T04:07:49.971Z,5.95
2022-09-24T04:10:18.280Z,5.92
2022-09-24T04:12:50.535Z,5.89
2022-09-24T04:15:22.044Z,5.88
2022-09-24T04:17:57.224Z,5.86
2022-09-24T04:20:29.694Z,5.87
2022-09-24T04:23:01.643Z,5.90
2022-09-24T04:25:34.080Z,5.86
2022-09-24T04:28:09.069Z,5.79
2022-09-24T04:30:40.882Z,5.79
2022-09-24T04:33:13.105Z,5.85
2022-09-24T04:35:41.522Z,5.90
2022-09-24T04:38:14.160Z,5.94
2022-09-24T04:40:42.168Z,5.99
2022-09-24T04:43:10.147Z,6.03
2022-09-24T04:45:38.523Z,6.07
2022-09-24T04:48:06.390Z,6.11
2022-09-24T04:50:34.565Z,6.15
2022-09-24T04:53:02.562Z,6.18
2022-09-24T04:55:32.340Z,6.20
2022-09-24T04:58:00.353Z,6.23
2022-09-24T05:00:28.050Z,6.28
2022-09-24T05:03:00.570Z,6.34
2022-09-24T05:05:28.836Z,6.38
2022-09-24T05:07:58.581Z,6.44
2022-09-24T05:10:28.192Z,6.52
2022-09-24T05:12:56.316Z,6.60
2022-09-24T05:15:24.285Z,6.66
2022-09-24T05:17:52.499Z,6.73
2022-09-24T05:20:21.200Z,6.81
2022-09-24T05:22:50.290Z,6.90
2022-09-24T05:25:23.837Z,6.95
2022-09-24T05:27:55.091Z,7.04
2022-09-24T05:30:26.263Z,7.09
2022-09-24T05:32:53.996Z,7.14
2022-09-24T05:35:24.465Z,7.20
2022-09-24T05:37:55.776Z,7.25
2022-09-24T05:40:42.036Z,7.32
2022-09-24T05:43:10.554Z,7.39
2022-09-24T05:45:38.882Z,7.44
2022-09-24T05:48:06.832Z,7.49
2022-09-24T05:50:35.446Z,7.54
2022-09-24T05:53:05.645Z,7.58
2022-09-24T05:55:34.610Z,7.63
2022-09-24T05:58:13.661Z,7.66
2022-09-24T06:00:41.689Z,7.70
2022-09-24T06:03:16.839Z,7.75
2022-09-24T06:05:52.074Z,7.79
2022-09-24T06:08:21.078Z,7.84
2022-09-24T06:10:49.447Z,7.88
2022-09-24T06:13:22.792Z,7.90
2022-09-24T06:15:51.159Z,7.91
2022-09-24T06:18:20.454Z,7.90
2022-09-24T06:20:49.423Z,7.88
2022-09-24T06:23:17.130Z,7.88
2022-09-24T06:25:51.252Z,7.88
2022-09-24T06:28:19.193Z,7.89
2022-09-24T06:30:47.446Z,7.89
2022-09-24T06:33:15.345Z,7.92
2022-09-24T06:35:45.026Z,7.93
2022-09-24T06:38:17.003Z,7.94
2022-09-24T06:40:50.736Z,7.96
2022-09-24T06:43:19.017Z,8.02
2022-09-24T06:45:47.386Z,8.07
2022-09-24T06:48:15.342Z,8.15
2022-09-24T06:50:45.783Z,8.25
2022-09-24T06:53:16.337Z,8.33
2022-09-24T06:55:46.920Z,8.41
2022-09-24T06:58:20.772Z,8.46
2022-09-24T07:00:54.034Z,8.54
2022-09-24T07:03:22.662Z,8.61
2022-09-24T07:05:51.282Z,8.66
2022-09-24T07:08:22.816Z,8.73
2022-09-24T07:10:53.281Z,8.81
2022-09-24T07:13:22.729Z,8.91
2022-09-24T07:15:53.394Z,9.01
2022-09-24T07:18:22.099Z,9.09
2022-09-24T07:20:55.938Z,9.13
2022-09-24T07:23:25.089Z,9.18
2022-09-24T07:25:57.865Z,9.23
2022-09-24T07:28:27.369Z,9.30
2022-09-24T07:31:00.650Z,9.36
2022-09-24T07:33:33.085Z,9.43
2022-09-24T07:36:09.003Z,9.53
2022-09-24T07:38:36.721Z,9.61
2022-09-24T07:41:09.680Z,9.69
2022-09-24T07:43:40.213Z,9.77
2022-09-24T07:46:10.076Z,9.86
2022-09-24T07:48:38.014Z,9.96
2022-09-24T07:51:11.936Z,10.05
2022-09-24T07:53:39.747Z,10.13
2022-09-24T07:56:09.199Z,10.24
2022-09-24T07:58:37.131Z,10.34
2022-09-24T08:01:06.543Z,10.40
2022-09-24T08:03:38.246Z,10.49
2022-09-24T08:06:07.795Z,10.58
2022-09-24T08:08:39.055Z,10.69
2022-09-24T08:11:10.795Z,10.84
2022-09-24T08:13:38.523Z,10.99
2022-09-24T08:16:08.384Z,11.12
2022-09-24T08:18:37.429Z,11.27
2022-09-24T08:21:13.233Z,11.40
2022-09-24T08:23:43.771Z,11.56
2022-09-24T08:26:14.116Z,11.70
2022-09-24T08:28:44.121Z,12.15
2022-09-24T08:31:14.150Z,12.72
2022-09-24T08:33:41.996Z,13.18
2022-09-24T08:36:12.434Z,13.60
2022-09-24T08:38:42.008Z,14.04
2022-09-24T08:41:33.456Z,14.48
2022-09-24T08:44:42.317Z,14.90
2022-09-24T08:47:24.194Z,15.35
2022-09-24T08:50:04.067Z,15.73
2022-09-24T08:52:44.016Z,16.05
2022-09-24T08:55:31.560Z,16.34
2022-09-24T08:58:17.767Z,16.44
2022-09-24T09:01:07.244Z,16.51
2022-09-24T09:04:00.167Z,16.66
2022-09-24T09:06:54.293Z,16.86
2022-09-24T09:09:34.674Z,17.03
2022-09-24T09:12:12.760Z,17.24
2022-09-24T09:14:52.792Z,17.37
2022-09-24T09:17:33.559Z,17.48
2022-09-24T09:20:07.783Z,17.59
2022-09-24T09:22:47.033Z,17.71
2022-09-24T09:25:30.132Z,17.80
2022-09-24T09:28:15.434Z,17.90
2022-09-24T09:30:53.039Z,18.06
2022-09-24T09:33:33.051Z,18.20
2022-09-24T09:36:22.195Z,18.32
2022-09-24T09:39:02.462Z,18.38
2022-09-24T09:41:40.413Z,18.29
2022-09-24T09:44:26.806Z,18.25
2022-09-24T09:47:04.255Z,18.15
2022-09-24T09:49:39.735Z,18.10
2022-09-24T09:52:22.733Z,18.05
2022-09-24T09:54:52.449Z,17.91
2022-09-24T09:57:25.919Z,17.86
2022-09-24T09:59:56.056Z,17.79
2022-09-24T10:02:34.078Z,17.76
2022-09-24T10:05:05.581Z,17.75
2022-09-24T10:07:45.565Z,17.78
2022-09-24T10:10:24.203Z,17.82
2022-09-24T10:13:14.349Z,17.84
2022-09-24T10:15:53.646Z,17.81
2022-09-24T10:18:44.716Z,17.81
2022-09-24T10:21:28.436Z,17.73
2022-09-24T10:24:05.313Z,17.64
2022-09-24T10:26:45.543Z,17.64
2022-09-24T10:29:41.975Z,17.62
2022-09-24T10:32:25.788Z,17.46
2022-09-24T10:35:20.046Z,17.35
2022-09-24T10:37:57.504Z,17.25
2022-09-24T10:40:39.646Z,17.21
2022-09-24T10:43:16.012Z,17.22
2022-09-24T10:46:13.879Z,17.21
2022-09-24T10:48:59.488Z,17.19
2022-09-24T10:52:04.939Z,17.07
2022-09-24T10:54:49.882Z,16.77
2022-09-24T10:57:55.212Z,16.71
2022-09-24T11:00:39.266Z,16.77
2022-09-24T11:03:47.985Z,16.75
2022-09-24T11:06:25.014Z,16.74
2022-09-24T11:09:15.240Z,16.72
2022-09-24T11:11:57.110Z,16.70
2022-09-24T11:14:46.039Z,16.71
2022-09-24T11:17:21.073Z,16.71
2022-09-24T11:20:11.099Z,16.67
2022-09-24T11:23:08.342Z,16.61
2022-09-24T11:25:49.529Z,16.56
2022-09-24T11:28:45.058Z,16.54
2022-09-24T11:31:30.113Z,16.54
2022-09-24T11:34:19.544Z,16.58
2022-09-24T11:37:04.685Z,16.58
2022-09-24T11:40:01.743Z,16.59
2022-09-24T11:42:36.115Z,16.55
2022-09-24T11:45:34.332Z,16.49
2022-09-24T11:48:11.035Z,16.48
2022-09-24T11:50:57.203Z,16.48
2022-09-24T11:53:39.552Z,16.53
2022-09-24T11:56:33.636Z,16.57
2022-09-24T11:59:22.527Z,16.58
2022-09-24T12:01:57.470Z,16.60
2022-09-24T12:04:40.397Z,16.56
2022-09-24T12:07:32.355Z,16.47
2022-09-24T12:10:23.317Z,16.37
2022-09-24T12:13:14.652Z,16.35
2022-09-24T12:15:58.547Z,16.36
2022-09-24T12:18:33.175Z,16.41
2022-09-24T12:21:19.517Z,16.44
2022-09-24T12:23:51.541Z,16.48
2022-09-24T12:26:23.019Z,16.51
2022-09-24T12:29:51.426Z,16.42
2022-09-24T12:32:47.279Z,16.31
2022-09-24T12:35:57.215Z,16.25
2022-09-24T12:38:42.097Z,16.19
2022-09-24T12:41:25.998Z,16.17
2022-09-24T12:44:12.619Z,16.18
2022-09-24T12:46:54.573Z,16.17
2022-09-24T12:49:25.066Z,16.12
2022-09-24T12:52:16.797Z,15.99
2022-09-24T12:54:46.183Z,15.91
2022-09-24T12:57:29.818Z,15.84
2022-09-24T13:00:02.878Z,15.86
2022-09-24T13:02:47.035Z,15.90
2022-09-24T13:05:20.629Z,15.92
2022-09-24T13:08:03.865Z,15.94
2022-09-24T13:10:36.500Z,15.96
2022-09-24T13:13:31.094Z,15.97
2022-09-24T13:16:21.664Z,15.99
2022-09-24T13:19:02.392Z,16.02
2022-09-24T13:21:33.022Z,16.06
2022-09-24T13:24:12.649Z,16.05
2022-09-24T13:26:40.405Z,16.05
2022-09-24T13:29:26.035Z,16.08
2022-09-24T13:32:03.066Z,16.11
2022-09-24T13:34:34.601Z,16.11
2022-09-24T13:37:13.672Z,16.11
2022-09-24T13:40:06.133Z,16.12
2022-09-24T13:43:07.257Z,16.13
2022-09-24T13:45:45.190Z,16.11
2022-09-24T13:48:37.445Z,16.12
2022-09-24T13:51:15.070Z,16.14
2022-09-24T13:54:00.777Z,16.16
2022-09-24T13:56:30.191Z,16.18
2022-09-24T13:59:14.334Z,16.19
2022-09-24T14:01:47.243Z,16.20
2022-09-24T14:04:22.567Z,16.21
2022-09-24T14:07:13.759Z,16.22
2022-09-24T14:09:49.825Z,16.24
2022-09-24T14:12:23.593Z,16.23
2022-09-24T14:15:00.403Z,16.23
2022-09-24T14:17:28.623Z,16.23
2022-09-24T14:19:59.414Z,16.22
2022-09-24T14:22:34.570Z,16.21
2022-09-24T14:25:25.698Z,16.18
2022-09-24T14:28:00.897Z,16.15
2022-09-24T14:30:33.334Z,16.14
2022-09-24T14:33:12.119Z,16.11
2022-09-24T14:35:45.892Z,16.11
2022-09-24T14:38:28.309Z,16.10
2022-09-24T14:41:18.036Z,16.08
2022-09-24T14:43:53.408Z,16.05
2022-09-24T14:46:33.508Z,16.02
2022-09-24T14:49:30.634Z,15.97
2022-09-24T14:52:01.702Z,15.93
2022-09-24T14:54:40.417Z,15.90
2022-09-24T14:57:17.330Z,15.87
2022-09-24T14:59:48.722Z,15.83
2022-09-24T15:02:19.766Z,15.79
2022-09-24T15:05:04.786Z,15.76
2022-09-24T15:07:39.891Z,15.75
2022-09-24T15:10:18.346Z,15.74
2022-09-24T15:12:46.043Z,15.74
2022-09-24T15:15:19.603Z,15.73
2022-09-24T15:17:49.678Z,15.71
2022-09-24T15:20:20.010Z,15.70
2022-09-24T15:22:52.039Z,15.69
2022-09-24T15:25:24.799Z,15.67
2022-09-24T15:27:56.999Z,15.64
2022-09-24T15:30:25.512Z,15.59
2022-09-24T15:32:58.338Z,15.55
2022-09-24T15:35:30.755Z,15.51
2022-09-24T15:38:00.944Z,15.47
2022-09-24T15:40:36.037Z,15.42
2022-09-24T15:43:04.053Z,15.36
2022-09-24T15:45:32.629Z,15.28
2022-09-24T15:48:01.293Z,15.20
2022-09-24T15:50:32.777Z,15.13
2022-09-24T15:53:04.946Z,15.09
2022-09-24T15:55:37.023Z,15.05
2022-09-24T15:58:19.478Z,15.01
2022-09-24T16:00:49.898Z,14.97
2022-09-24T16:03:30.815Z,14.93
2022-09-24T16:06:02.331Z,14.88
2022-09-24T16:08:30.497Z,14.84
2022-09-24T16:10:59.059Z,14.79
2022-09-24T16:13:27.380Z,14.75
2022-09-24T16:16:00.625Z,14.70
2022-09-24T16:18:30.871Z,14.64
2022-09-24T16:21:07.861Z,14.58
2022-09-24T16:23:35.876Z,14.52
2022-09-24T16:26:06.798Z,14.44
2022-09-24T16:28:37.735Z,14.38
2022-09-24T16:31:08.900Z,14.33
2022-09-24T16:33:43.093Z,14.30
2022-09-24T16:36:11.486Z,14.24
2022-09-24T16:38:40.290Z,14.13
2022-09-24T16:41:11.408Z,14.06
2022-09-24T16:43:39.379Z,13.99
2022-09-24T16:46:16.404Z,13.95
2022-09-24T16:48:50.781Z,13.93
2022-09-24T16:51:20.684Z,13.89
2022-09-24T16:53:56.501Z,13.83
2022-09-24T16:56:26.861Z,13.75
2022-09-24T16:58:54.811Z,13.67
2022-09-24T17:01:22.897Z,13.58
2022-09-24T17:03:59.014Z,13.52
2022-09-24T17:06:32.995Z,13.45
2022-09-24T17:09:23.425Z,13.38
2022-09-24T17:11:51.936Z,13.31
2022-09-24T17:14:23.964Z,13.22
2022-09-24T17:16:51.739Z,13.16
2022-09-24T17:19:20.562Z,13.10
2022-09-24T17:21:53.007Z,13.08
2022-09-24T17:24:22.091Z,13.05
2022-09-24T17:26:51.133Z,13.02
2022-09-24T17:29:21.277Z,13.00
2022-09-24T17:31:50.150Z,12.99
2022-09-24T17:34:19.089Z,12.96
2022-09-24T17:36:48.100Z,12.91
2022-09-24T17:39:17.050Z,12.89
2022-09-24T17:41:45.015Z,12.86
2022-09-24T17:44:15.888Z,12.87
2022-09-24T17:46:43.893Z,12.85
2022-09-24T17:49:12.196Z,12.83
2022-09-24T17:51:40.306Z,12.81
2022-09-24T17:54:12.975Z,12.78
2022-09-24T17:56:41.892Z,12.76
2022-09-24T17:59:12.584Z,12.72
2022-09-24T18:01:43.656Z,12.68
2022-09-24T18:04:15.423Z,12.66
2022-09-24T18:06:45.040Z,12.64
2022-09-24T18:09:14.850Z,12.60
2022-09-24T18:11:46.062Z,12.57
2022-09-24T18:14:22.997Z,12.50
2022-09-24T18:16:51.766Z,12.45
2022-09-24T18:19:20.688Z,12.41
2022-09-24T18:21:49.950Z,12.38
2022-09-24T18:24:18.328Z,12.36
2022-09-24T18:26:51.309Z,12.32
2022-09-24T18:29:21.329Z,12.28
2022-09-24T18:31:51.803Z,12.23
2022-09-24T18:34:20.340Z,12.19
2022-09-24T18:36:48.411Z,12.14
2022-09-24T18:39:23.759Z,12.13
2022-09-24T18:41:53.374Z,12.12
2022-09-24T18:44:22.310Z,12.09
2022-09-24T18:46:51.528Z,12.04
2022-09-24T18:49:19.727Z,12.00
2022-09-24T18:51:49.636Z,11.96
2022-09-24T18:54:19.451Z,11.93
2022-09-24T18:56:47.829Z,11.90
2022-09-24T18:59:19.078Z,11.87
2022-09-24T19:01:49.075Z,11.84
2022-09-24T19:04:18.450Z,11.81
2022-09-24T19:06:48.488Z,11.77
2022-09-24T19:09:17.627Z,11.75
2022-09-24T19:11:46.943Z,11.75
2022-09-24T19:14:18.660Z,11.75
2022-09-24T19:16:48.337Z,11.74
2022-09-24T19:19:16.729Z,11.73
2022-09-24T19:21:45.545Z,11.74
2022-09-24T19:24:13.607Z,11.73
2022-09-24T19:26:41.968Z,11.73
2022-09-24T19:29:10.383Z,11.74
2022-09-24T19:31:42.853Z,11.76
2022-09-24T19:34:13.282Z,11.77
2022-09-24T19:36:44.963Z,11.77
2022-09-24T19:39:16.471Z,11.77
2022-09-24T19:41:45.494Z,11.79
2022-09-24T19:44:16.660Z,11.81
2022-09-24T19:46:45.458Z,11.83
2022-09-24T19:49:14.895Z,11.86
2022-09-24T19:51:42.994Z,11.89
2022-09-24T19:54:11.754Z,11.91
2022-09-24T19:56:40.440Z,11.93
2022-09-24T19:59:10.353Z,11.95
2022-09-24T20:01:38.570Z,11.97
2022-09-24T20:04:07.738Z,11.99
2022-09-24T20:06:39.485Z,12.00
2022-09-24T20:09:07.799Z,12.02
2022-09-24T20:11:36.346Z,12.04
2022-09-24T20:14:06.324Z,12.04
2022-09-24T20:16:34.433Z,12.05
2022-09-24T20:19:03.317Z,12.06
2022-09-24T20:21:37.227Z,12.08
2022-09-24T20:24:07.918Z,12.10
2022-09-24T20:26:56.039Z,12.11
2022-09-24T20:29:24.989Z,12.10
2022-09-24T20:31:55.848Z,12.10
2022-09-24T20:34:34.460Z,12.09
2022-09-24T20:37:05.879Z,12.06
2022-09-24T20:39:34.684Z,12.07
2022-09-24T20:42:04.194Z,12.06
2022-09-24T20:44:35.106Z,12.06
2022-09-24T20:47:03.504Z,12.05
2022-09-24T20:49:33.483Z,12.04
2022-09-24T20:52:03.538Z,12.01
2022-09-24T20:54:32.335Z,11.99
2022-09-24T20:57:00.198Z,11.96
2022-09-24T20:59:28.343Z,11.93
2022-09-24T21:01:56.841Z,11.89
2022-09-24T21:04:25.087Z,11.87
2022-09-24T21:06:55.559Z,11.86
2022-09-24T21:09:23.971Z,11.86
2022-09-24T21:11:54.769Z,11.85
2022-09-24T21:14:22.853Z,11.85
2022-09-24T21:16:51.008Z,11.82
2022-09-24T21:19:19.178Z,11.81
2022-09-24T21:21:47.380Z,11.80
2022-09-24T21:24:16.490Z,11.80
2022-09-24T21:26:45.592Z,11.78
2022-09-24T21:29:17.003Z,11.77
2022-09-24T21:31:47.881Z,11.76
2022-09-24T21:34:20.994Z,11.75
2022-09-24T21:36:49.702Z,11.74
2022-09-24T21:39:20.437Z,11.74
2022-09-24T21:41:50.413Z,11.73
2022-09-24T21:44:19.536Z,11.71
2022-09-24T21:46:51.138Z,11.70
2022-09-24T21:49:20.224Z,11.69
2022-09-24T21:51:49.290Z,11.67
2022-09-24T21:54:18.411Z,11.66
2022-09-24T21:56:47.935Z,11.64
2022-09-24T21:59:36.338Z,11.64
2022-09-24T22:02:04.976Z,11.64
2022-09-24T22:04:33.635Z,11.65
2022-09-24T22:07:03.005Z,11.65
2022-09-24T22:09:32.481Z,11.65
2022-09-24T22:12:04.132Z,11.66
2022-09-24T22:14:35.052Z,11.66
2022-09-24T22:17:04.296Z,11.66
2022-09-24T22:19:32.660Z,11.65
2022-09-24T22:22:02.816Z,11.64
2022-09-24T22:24:30.547Z,11.65
2022-09-24T22:26:58.478Z,11.65
2022-09-24T22:29:26.834Z,11.65
2022-09-24T22:31:54.787Z,11.64
2022-09-24T22:34:58.257Z,11.64
2022-09-24T22:37:27.927Z,11.62
2022-09-24T22:39:56.943Z,11.60
2022-09-24T22:42:24.854Z,11.60
2022-09-24T22:44:53.247Z,11.59
2022-09-24T22:47:21.118Z,11.57
2022-09-24T22:49:49.282Z,11.57
2022-09-24T22:52:17.174Z,11.56
2022-09-24T22:54:45.539Z,11.56
2022-09-24T22:57:14.146Z,11.56
2022-09-24T22:59:42.116Z,11.55
2022-09-24T23:02:13.396Z,11.55
2022-09-24T23:04:42.692Z,11.54
2022-09-24T23:07:14.275Z,11.54
2022-09-24T23:09:42.897Z,11.53
2022-09-24T23:12:10.706Z,11.52
2022-09-24T23:14:39.199Z,11.51
2022-09-24T23:17:07.984Z,11.50
2022-09-24T23:19:53.023Z,11.49
2022-09-24T23:22:23.083Z,11.50
2022-09-24T23:24:51.907Z,11.50
2022-09-24T23:27:20.861Z,11.51
2022-09-24T23:29:50.098Z,11.52
2022-09-24T23:32:19.166Z,11.53
2022-09-24T23:34:48.833Z,11.51
2022-09-24T23:37:19.295Z,11.51
2022-09-24T23:39:47.034Z,11.52
2022-09-24T23:42:14.797Z,11.51
2022-09-24T23:44:42.684Z,11.52
2022-09-24T23:47:10.591Z,11.52
2022-09-24T23:49:38.509Z,11.53
2022-09-24T23:52:07.533Z,11.53
2022-09-24T23:54:41.803Z,11.52
2022-09-24T23:57:12.755Z,11.53
2022-09-24T23:59:40.949Z,11.54
